createdAt,value
2018-01-31T01:52:20.356Z,4.50
2018-01-31T01:52:21.110Z,4.10
2018-01-31T01:54:27.418Z,4.10
2018-01-31T01:56:55.143Z,3.90
2018-01-31T01:59:22.646Z,3.90
2018-01-31T02:01:50.347Z,3.90
2018-01-31T02:04:17.848Z,3.90
2018-01-31T02:06:46.215Z,3.90
2018-01-31T02:09:13.966Z,3.90
2018-01-31T02:11:41.466Z,3.90
2018-01-31T02:14:09.010Z,3.90
2018-01-31T02:16:36.527Z,4.00
2018-01-31T02:19:04.098Z,4.00
2018-01-31T02:21:31.858Z,3.80
2018-01-31T02:23:59.366Z,3.80
2018-01-31T02:26:26.867Z,3.80
2018-01-31T02:28:54.384Z,3.90
2018-01-31T02:31:23.072Z,3.90
2018-01-31T02:33:51.633Z,3.80
2018-01-31T02:36:19.341Z,3.80
2018-01-31T02:38:58.805Z,3.90
2018-01-31T02:41:26.319Z,4.00
2018-01-31T02:43:53.827Z,4.00
2018-01-31T02:46:21.438Z,3.90
2018-01-31T02:48:48.943Z,3.90
2018-01-31T02:51:16.695Z,3.90
2018-01-31T02:53:44.207Z,3.90
2018-01-31T02:56:11.919Z,3.90
2018-01-31T02:58:39.431Z,4.00
2018-01-31T03:01:07.673Z,4.00
2018-01-31T03:03:35.516Z,4.10
2018-01-31T03:06:03.616Z,4.00
2018-01-31T03:08:31.121Z,3.90
2018-01-31T03:10:59.039Z,4.10
2018-01-31T03:13:26.541Z,4.00
2018-01-31T03:15:54.057Z,4.00
2018-01-31T03:18:21.665Z,4.10
2018-01-31T03:20:49.174Z,4.00
2018-01-31T03:23:16.683Z,4.00
2018-01-31T03:25:44.460Z,4.10
2018-01-31T03:28:12.279Z,4.00
2018-01-31T03:30:39.743Z,4.00
2018-01-31T03:33:07.460Z,4.00
2018-01-31T03:35:35.627Z,4.00
2018-01-31T03:38:03.184Z,4.00
2018-01-31T03:40:30.701Z,4.00
2018-01-31T03:42:58.994Z,3.80
2018-01-31T03:45:26.550Z,3.90
2018-01-31T03:47:54.062Z,3.90
2018-01-31T03:50:21.566Z,3.90
2018-01-31T03:52:49.067Z,4.00
2018-01-31T03:55:16.686Z,4.00
2018-01-31T03:57:44.180Z,4.00
2018-01-31T04:00:11.922Z,3.90
2018-01-31T04:02:39.428Z,4.00
2018-01-31T04:05:06.930Z,4.00
2018-01-31T04:07:34.607Z,3.90
2018-01-31T04:10:02.119Z,4.00
2018-01-31T04:12:29.828Z,4.00
2018-01-31T04:14:57.331Z,4.10
2018-01-31T04:17:25.015Z,4.20
2018-01-31T04:19:52.511Z,4.20
2018-01-31T04:22:20.559Z,4.20
2018-01-31T04:24:48.075Z,4.10
2018-01-31T04:27:15.795Z,4.10
2018-01-31T04:29:43.673Z,4.10
2018-01-31T04:32:11.295Z,4.10
2018-01-31T04:34:39.086Z,4.10
2018-01-31T04:37:06.587Z,4.10
2018-01-31T04:39:34.303Z,4.00
2018-01-31T04:42:02.074Z,4.00
2018-01-31T04:44:29.579Z,4.10
2018-01-31T04:46:57.252Z,4.30
2018-01-31T04:49:25.055Z,4.30
2018-01-31T04:51:52.562Z,4.30
2018-01-31T04:54:20.272Z,4.30
2018-01-31T04:56:47.784Z,4.30
2018-01-31T04:59:15.288Z,4.30
2018-01-31T05:01:42.797Z,4.30
2018-01-31T05:04:10.412Z,4.30
2018-01-31T05:06:37.911Z,4.30
2018-01-31T05:09:05.567Z,4.20
2018-01-31T05:11:33.083Z,4.30
2018-01-31T05:14:01.490Z,4.40
2018-01-31T05:16:29.013Z,4.40
2018-01-31T05:18:56.680Z,4.50
2018-01-31T05:21:24.474Z,4.50
2018-01-31T05:23:52.402Z,4.50
2018-01-31T05:26:19.970Z,4.50
2018-01-31T05:28:47.751Z,4.40
2018-01-31T05:31:16.120Z,4.40
2018-01-31T05:33:43.652Z,4.50
2018-01-31T05:36:11.370Z,4.60
2018-01-31T05:38:38.886Z,4.50
2018-01-31T05:41:06.571Z,4.60
2018-01-31T05:43:34.078Z,4.60
2018-01-31T05:46:01.577Z,4.70
2018-01-31T05:48:29.226Z,4.70
2018-01-31T05:50:56.726Z,4.70
2018-01-31T05:53:24.442Z,4.70
2018-01-31T05:55:51.942Z,4.70
2018-01-31T05:58:19.667Z,4.80
2018-01-31T06:00:47.431Z,4.80
2018-01-31T06:03:15.195Z,4.80
2018-01-31T06:05:42.707Z,4.90
2018-01-31T06:08:10.208Z,4.90
2018-01-31T06:10:37.743Z,4.80
2018-01-31T06:13:05.961Z,4.70
2018-01-31T06:15:33.465Z,4.70
2018-01-31T06:18:01.752Z,4.70
2018-01-31T06:20:29.258Z,4.70
2018-01-31T06:22:57.520Z,4.60
2018-01-31T06:25:25.032Z,4.70
2018-01-31T06:27:52.536Z,4.70
2018-01-31T06:30:20.051Z,4.60
2018-01-31T06:32:47.739Z,4.60
2018-01-31T06:35:15.251Z,4.60
2018-01-31T06:37:42.923Z,4.70
2018-01-31T06:40:10.439Z,4.70
2018-01-31T06:42:38.183Z,4.70
2018-01-31T06:45:05.947Z,4.60
2018-01-31T06:47:33.464Z,4.60
2018-01-31T06:50:00.985Z,4.70
2018-01-31T06:52:29.239Z,4.70
2018-01-31T06:54:56.773Z,4.80
2018-01-31T06:57:24.265Z,4.80
2018-01-31T06:59:51.774Z,4.90
2018-01-31T07:02:19.363Z,5.60
2018-01-31T07:04:47.134Z,5.90
2018-01-31T07:07:14.631Z,5.90
2018-01-31T07:09:42.351Z,6.00
2018-01-31T07:12:10.115Z,6.20
2018-01-31T07:14:37.880Z,6.50
2018-01-31T07:17:05.385Z,6.50
2018-01-31T07:19:32.896Z,6.20
2018-01-31T07:22:01.219Z,6.00
2018-01-31T07:24:28.846Z,5.80
2018-01-31T07:26:56.368Z,5.70
2018-01-31T07:29:23.871Z,5.70
2018-01-31T07:31:51.553Z,5.60
2018-01-31T07:34:19.067Z,5.60
2018-01-31T07:36:46.910Z,5.60
2018-01-31T07:39:14.571Z,5.60
2018-01-31T07:41:42.373Z,5.70
2018-01-31T07:44:09.996Z,5.60
2018-01-31T07:46:37.579Z,5.60
2018-01-31T07:49:05.095Z,5.70
2018-01-31T07:51:32.794Z,5.70
2018-01-31T07:54:00.576Z,5.60
2018-01-31T07:56:28.097Z,5.80
2018-01-31T07:58:55.794Z,5.80
2018-01-31T08:01:23.284Z,5.80
2018-01-31T08:03:50.783Z,5.80
2018-01-31T08:06:18.286Z,5.90
2018-01-31T08:08:46.546Z,6.00
2018-01-31T08:11:15.215Z,6.00
2018-01-31T08:13:42.706Z,5.90
2018-01-31T08:16:10.218Z,6.00
2018-01-31T08:18:37.764Z,6.00
2018-01-31T08:21:06.981Z,6.10
2018-01-31T08:23:34.475Z,6.10
2018-01-31T08:26:02.950Z,6.20
2018-01-31T08:28:30.457Z,6.10
2018-01-31T08:30:58.255Z,6.20
2018-01-31T08:33:25.847Z,6.30
2018-01-31T08:35:54.102Z,6.60
2018-01-31T08:38:21.599Z,6.60
2018-01-31T08:40:49.875Z,6.70
2018-01-31T08:43:17.371Z,6.90
2018-01-31T08:45:45.731Z,7.00
2018-01-31T08:48:13.243Z,7.10
2018-01-31T08:50:40.751Z,7.10
2018-01-31T08:53:08.255Z,7.10
2018-01-31T08:55:36.516Z,7.20
2018-01-31T08:58:04.268Z,7.20
2018-01-31T09:00:31.759Z,7.20
2018-01-31T09:02:59.480Z,7.30
2018-01-31T09:05:27.247Z,7.30
2018-01-31T09:07:55.012Z,7.30
2018-01-31T09:10:22.502Z,7.30
2018-01-31T09:12:50.007Z,7.40
2018-01-31T09:15:17.496Z,7.40
2018-01-31T09:17:45.049Z,7.50
2018-01-31T09:20:12.591Z,7.50
2018-01-31T09:22:40.355Z,7.50
2018-01-31T09:25:07.847Z,7.60
2018-01-31T09:27:35.579Z,7.70
2018-01-31T09:30:03.338Z,7.70
2018-01-31T09:32:30.842Z,7.70
2018-01-31T09:34:58.348Z,7.70
2018-01-31T09:37:26.198Z,7.70
2018-01-31T09:39:53.911Z,7.70
2018-01-31T09:42:21.404Z,7.80
2018-01-31T09:44:49.005Z,7.80
2018-01-31T09:47:16.762Z,7.70
2018-01-31T09:49:44.270Z,7.70
2018-01-31T09:52:11.943Z,7.70
2018-01-31T09:54:39.454Z,7.80
2018-01-31T09:57:07.202Z,7.80
2018-01-31T09:59:34.704Z,7.80
2018-01-31T10:02:03.221Z,7.80
2018-01-31T10:04:30.710Z,7.90
2018-01-31T10:06:58.202Z,7.90
2018-01-31T10:09:25.711Z,7.90
2018-01-31T10:11:53.321Z,7.90
2018-01-31T10:14:21.860Z,8.00
2018-01-31T10:16:49.364Z,7.90
2018-01-31T10:19:17.074Z,8.00
2018-01-31T10:21:44.562Z,7.90
2018-01-31T10:24:12.269Z,8.00
2018-01-31T10:26:39.757Z,8.00
2018-01-31T10:29:07.266Z,8.00
2018-01-31T10:31:34.765Z,8.00
2018-01-31T10:34:02.668Z,8.00
2018-01-31T10:36:30.169Z,8.00
2018-01-31T10:38:57.667Z,8.10
2018-01-31T10:41:25.376Z,8.10
2018-01-31T10:43:53.000Z,8.10
2018-01-31T10:46:20.508Z,8.10
2018-01-31T10:48:48.094Z,8.20
2018-01-31T10:51:15.587Z,8.20
2018-01-31T10:58:38.225Z,8.30
2018-01-31T11:01:05.727Z,8.40
2018-01-31T11:03:33.375Z,8.40
2018-01-31T11:06:00.907Z,8.40
2018-01-31T11:08:28.414Z,8.40
2018-01-31T11:10:55.926Z,8.40
2018-01-31T11:13:23.535Z,8.40
2018-01-31T11:15:51.059Z,8.40
2018-01-31T11:18:18.680Z,8.40
2018-01-31T11:20:46.387Z,8.50
2018-01-31T11:23:13.878Z,8.50
2018-01-31T11:25:41.387Z,8.50
2018-01-31T11:28:08.884Z,8.50
2018-01-31T11:30:37.795Z,8.60
2018-01-31T11:33:05.384Z,8.60
2018-01-31T11:35:33.159Z,8.60
2018-01-31T11:38:00.663Z,8.60
2018-01-31T11:40:28.162Z,8.60
2018-01-31T11:42:55.823Z,8.60
2018-01-31T11:45:23.326Z,8.60
2018-01-31T11:47:51.608Z,8.60
2018-01-31T11:50:19.120Z,8.60
2018-01-31T11:52:46.628Z,8.60
2018-01-31T11:55:14.334Z,8.60
2018-01-31T11:57:42.122Z,8.60
2018-01-31T12:00:09.860Z,8.60
2018-01-31T12:02:37.429Z,8.60
2018-01-31T12:05:05.076Z,8.50
2018-01-31T12:07:32.582Z,8.50
2018-01-31T12:10:01.024Z,8.50
2018-01-31T12:12:41.450Z,8.50
2018-01-31T12:15:21.008Z,8.40
2018-01-31T12:17:48.506Z,8.50
2018-01-31T12:20:27.911Z,8.50
2018-01-31T12:23:07.348Z,8.40
2018-01-31T12:25:46.732Z,8.50
2018-01-31T12:28:34.902Z,8.50
2018-01-31T12:31:14.336Z,8.50
2018-01-31T12:33:53.631Z,8.50
2018-01-31T12:36:33.134Z,8.50
2018-01-31T12:39:00.134Z,8.60
2018-01-31T12:41:27.151Z,8.50
2018-01-31T12:43:54.278Z,8.50
2018-01-31T12:46:33.534Z,8.50
2018-01-31T12:49:10.997Z,8.50
2018-01-31T12:51:51.235Z,8.50
2018-01-31T12:54:30.719Z,8.50
2018-01-31T12:57:10.231Z,8.50
2018-01-31T13:00:01.473Z,8.50
2018-01-31T13:03:08.415Z,8.50
2018-01-31T13:05:47.746Z,8.40
2018-01-31T13:08:27.291Z,8.40
2018-01-31T13:11:06.723Z,8.30
2018-01-31T13:13:46.186Z,8.30
2018-01-31T13:16:36.464Z,8.30
2018-01-31T13:19:15.804Z,8.30
2018-01-31T13:21:55.113Z,8.20
2018-01-31T13:24:34.675Z,8.20
2018-01-31T13:27:14.418Z,8.20
2018-01-31T13:29:53.858Z,8.30
2018-01-31T13:32:33.343Z,8.20
2018-01-31T13:35:12.875Z,8.20
2018-01-31T13:37:58.767Z,8.20
2018-01-31T13:40:38.990Z,8.10
2018-01-31T13:43:18.388Z,8.10
2018-01-31T13:45:57.795Z,8.00
2018-01-31T13:48:38.074Z,7.90
2018-01-31T13:51:18.008Z,7.80
2018-01-31T13:53:57.345Z,7.90
2018-01-31T13:56:36.714Z,7.80
2018-01-31T13:59:16.217Z,7.80
2018-01-31T14:01:55.715Z,7.70
2018-01-31T14:04:35.663Z,7.70
2018-01-31T14:07:15.094Z,7.70
2018-01-31T14:09:54.523Z,7.70
2018-01-31T14:12:34.068Z,7.70
2018-01-31T14:15:26.255Z,7.80
2018-01-31T14:18:15.142Z,7.80
2018-01-31T14:20:54.494Z,7.80
2018-01-31T14:23:34.530Z,7.80
2018-01-31T14:26:13.772Z,7.70
2018-01-31T14:29:05.882Z,7.80
2018-01-31T14:31:45.335Z,7.70
2018-01-31T14:34:24.771Z,7.70
2018-01-31T14:36:52.046Z,7.70
2018-01-31T14:39:19.504Z,7.70
2018-01-31T14:41:46.750Z,7.70
2018-01-31T14:44:13.760Z,7.70
2018-01-31T14:46:40.773Z,7.70
2018-01-31T14:49:07.787Z,7.70
2018-01-31T14:51:34.794Z,7.60
2018-01-31T14:54:02.085Z,7.70
2018-01-31T14:56:29.336Z,7.70
2018-01-31T14:58:56.342Z,7.60
2018-01-31T15:01:23.364Z,7.60
2018-01-31T15:03:50.473Z,7.40
2018-01-31T15:06:17.526Z,7.40
2018-01-31T15:08:44.536Z,7.40
2018-01-31T15:11:11.544Z,7.30
2018-01-31T15:13:38.551Z,7.40
2018-01-31T15:16:05.551Z,7.30
2018-01-31T15:18:32.573Z,7.20
2018-01-31T15:20:59.805Z,7.30
2018-01-31T15:23:26.830Z,7.20
2018-01-31T15:25:53.850Z,7.20
2018-01-31T15:28:20.907Z,7.20
2018-01-31T15:30:47.890Z,7.20
2018-01-31T15:33:14.902Z,7.20
2018-01-31T15:35:41.915Z,7.20
2018-01-31T15:38:09.244Z,7.20
2018-01-31T15:40:36.251Z,7.20
2018-01-31T15:43:03.275Z,7.20
2018-01-31T15:45:30.275Z,7.20
2018-01-31T15:47:57.531Z,7.20
2018-01-31T15:50:24.535Z,7.30
2018-01-31T15:52:51.825Z,7.30
2018-01-31T15:55:18.841Z,7.20
2018-01-31T15:57:45.918Z,7.20
2018-01-31T16:00:12.943Z,7.30
2018-01-31T16:02:39.945Z,7.20
2018-01-31T16:05:07.722Z,7.20
2018-01-31T16:07:35.659Z,7.30
2018-01-31T16:10:02.674Z,7.20
2018-01-31T16:12:30.123Z,7.20
2018-01-31T16:14:57.311Z,7.20
2018-01-31T16:17:24.855Z,7.20
2018-01-31T16:20:04.295Z,7.20
2018-01-31T16:22:31.787Z,7.20
2018-01-31T16:24:59.511Z,7.20
2018-01-31T16:27:27.812Z,7.20
2018-01-31T16:30:05.235Z,7.20
2018-01-31T16:32:44.671Z,7.20
2018-01-31T16:35:12.427Z,6.60
2018-01-31T16:37:40.143Z,6.00
2018-01-31T16:40:07.680Z,5.70
2018-01-31T16:42:35.363Z,5.60
2018-01-31T16:45:02.922Z,5.40
2018-01-31T16:47:30.594Z,5.40
2018-01-31T16:49:58.875Z,5.40
2018-01-31T16:52:26.423Z,5.30
2018-01-31T16:54:53.916Z,5.40
2018-01-31T16:57:21.425Z,5.40
2018-01-31T16:59:49.200Z,5.40
2018-01-31T17:02:16.860Z,5.40
2018-01-31T17:04:44.622Z,8.50
2018-01-31T17:07:12.800Z,9.50
2018-01-31T17:09:40.301Z,9.80
2018-01-31T17:12:08.570Z,9.50
2018-01-31T17:14:36.291Z,9.50
2018-01-31T17:17:04.687Z,9.60
2018-01-31T17:19:32.428Z,7.60
2018-01-31T17:22:00.101Z,6.40
2018-01-31T17:24:28.140Z,5.90
2018-01-31T17:26:55.726Z,5.70
2018-01-31T17:29:23.219Z,5.70
2018-01-31T17:31:50.736Z,5.40
2018-01-31T17:34:19.528Z,5.40
2018-01-31T17:36:47.079Z,5.40
2018-01-31T17:39:14.592Z,5.50
2018-01-31T17:41:42.306Z,5.50
2018-01-31T17:44:10.513Z,7.60
2018-01-31T17:46:39.775Z,8.70
2018-01-31T17:49:07.820Z,8.60
2018-01-31T17:51:35.310Z,7.10
2018-01-31T17:54:02.946Z,6.10
2018-01-31T17:56:30.447Z,5.60
2018-01-31T17:58:58.199Z,5.50
2018-01-31T18:01:25.707Z,5.50
2018-01-31T18:03:53.398Z,5.60
2018-01-31T18:06:20.940Z,5.50
2018-01-31T18:08:48.453Z,5.50
2018-01-31T18:11:16.043Z,5.40
2018-01-31T18:13:43.543Z,5.40
2018-01-31T18:16:11.040Z,5.30
2018-01-31T18:18:38.535Z,5.30
2018-01-31T18:21:06.045Z,5.40
2018-01-31T18:23:33.662Z,5.30
2018-01-31T18:26:01.158Z,5.30
2018-01-31T18:28:28.675Z,5.30
2018-01-31T18:30:56.351Z,5.40
2018-01-31T18:33:24.115Z,5.40
2018-01-31T18:35:51.836Z,5.40
2018-01-31T18:38:19.336Z,5.50
2018-01-31T18:40:46.833Z,5.50
2018-01-31T18:43:15.183Z,5.40
2018-01-31T18:45:42.696Z,5.30
2018-01-31T18:48:10.943Z,5.20
2018-01-31T18:50:38.486Z,5.10
2018-01-31T18:53:05.943Z,5.20
2018-01-31T18:55:34.254Z,5.20
2018-01-31T18:58:02.255Z,5.20
2018-01-31T19:00:29.823Z,5.10
2018-01-31T19:02:57.787Z,5.10
2018-01-31T19:05:25.667Z,5.10
2018-01-31T19:07:53.159Z,5.10
2018-01-31T19:10:20.675Z,5.10
2018-01-31T19:12:48.168Z,5.10
2018-01-31T19:15:16.436Z,5.00
2018-01-31T19:17:44.391Z,5.00
2018-01-31T19:20:12.855Z,5.00
2018-01-31T19:22:40.596Z,5.00
2018-01-31T19:25:08.121Z,5.00
2018-01-31T19:27:35.620Z,5.10
2018-01-31T19:30:03.114Z,5.00
2018-01-31T19:32:31.864Z,4.90
2018-01-31T19:34:59.428Z,5.00
2018-01-31T19:37:26.942Z,5.00
2018-01-31T19:39:54.628Z,5.10
2018-01-31T19:42:22.246Z,5.10
2018-01-31T19:44:50.517Z,5.10
2018-01-31T19:47:18.719Z,5.10
2018-01-31T19:49:46.235Z,5.10
2018-01-31T19:52:13.767Z,5.00
2018-01-31T19:54:41.271Z,4.90
2018-01-31T19:57:08.779Z,4.80
2018-01-31T19:59:36.485Z,4.90
2018-01-31T20:02:04.732Z,4.90
2018-01-31T20:04:32.324Z,4.80
2018-01-31T20:06:59.856Z,4.90
2018-01-31T20:09:27.509Z,4.90
2018-01-31T20:11:55.019Z,4.90
2018-01-31T20:14:22.651Z,4.90
2018-01-31T20:16:50.214Z,4.90
2018-01-31T20:19:18.605Z,4.90
2018-01-31T20:21:46.319Z,4.80
2018-01-31T20:24:14.102Z,4.80
2018-01-31T20:26:43.475Z,4.80
2018-01-31T20:29:10.982Z,4.80
2018-01-31T20:31:39.246Z,4.70
2018-01-31T20:34:07.354Z,4.70
2018-01-31T20:36:35.091Z,4.70
2018-01-31T20:39:02.656Z,4.80
2018-01-31T20:41:30.935Z,4.60
2018-01-31T20:43:58.482Z,4.60
2018-01-31T20:46:26.671Z,4.60
2018-01-31T20:48:54.183Z,4.60
2018-01-31T20:51:21.943Z,4.50
2018-01-31T20:53:49.458Z,4.60
2018-01-31T20:56:16.958Z,4.50
2018-01-31T20:58:45.917Z,4.60
2018-01-31T21:01:13.437Z,4.60
2018-01-31T21:03:41.674Z,4.50
2018-01-31T21:06:09.447Z,4.50
2018-01-31T21:08:36.980Z,4.50
2018-01-31T21:11:04.490Z,4.50
2018-01-31T21:13:31.994Z,4.50
2018-01-31T21:15:59.487Z,4.40
2018-01-31T21:18:27.762Z,4.40
2018-01-31T21:20:55.427Z,4.40
2018-01-31T21:23:22.926Z,4.40
2018-01-31T21:25:50.626Z,4.20
2018-01-31T21:28:18.117Z,4.10
2018-01-31T21:30:45.711Z,4.10
2018-01-31T21:33:13.311Z,4.10
2018-01-31T21:35:40.811Z,4.00
2018-01-31T21:38:08.313Z,3.90
2018-01-31T21:40:37.167Z,4.00
2018-01-31T21:43:04.749Z,4.00
2018-01-31T21:45:32.316Z,4.10
2018-01-31T21:47:59.879Z,4.00
2018-01-31T21:50:27.382Z,4.10
2018-01-31T21:52:54.884Z,4.10
2018-01-31T21:55:22.505Z,4.10
2018-01-31T21:57:55.770Z,4.10
2018-01-31T22:00:23.372Z,4.10
2018-01-31T22:02:51.069Z,4.00
2018-01-31T22:05:18.571Z,3.90
2018-01-31T22:07:46.095Z,4.10
2018-01-31T22:10:13.603Z,4.10
2018-01-31T22:12:41.863Z,4.10
2018-01-31T22:15:09.599Z,4.10
2018-01-31T22:17:37.355Z,4.00
2018-01-31T22:20:05.676Z,4.10
2018-01-31T22:22:33.943Z,4.10
2018-01-31T22:25:02.219Z,4.10
2018-01-31T22:27:29.722Z,4.10
2018-01-31T22:29:57.207Z,4.10
2018-01-31T22:32:24.710Z,4.20
2018-01-31T22:34:52.211Z,4.10
2018-01-31T22:37:19.775Z,4.10
2018-01-31T22:39:47.273Z,4.20
2018-01-31T22:42:14.779Z,4.20
2018-01-31T22:44:42.278Z,4.30
2018-01-31T22:47:09.904Z,4.30
2018-01-31T22:49:37.399Z,4.30
2018-01-31T22:52:05.126Z,4.20
2018-01-31T22:54:32.918Z,4.10
2018-01-31T22:57:00.659Z,4.20
2018-01-31T22:59:28.155Z,4.20
2018-01-31T23:01:55.835Z,4.10
2018-01-31T23:04:23.336Z,4.10
2018-01-31T23:06:50.839Z,4.20
2018-01-31T23:09:18.511Z,4.20
2018-01-31T23:11:46.031Z,4.10
2018-01-31T23:14:19.139Z,4.10
2018-01-31T23:16:47.407Z,4.00
2018-01-31T23:19:15.400Z,4.00
2018-01-31T23:21:42.896Z,3.90
2018-01-31T23:24:10.406Z,3.90
2018-01-31T23:26:37.908Z,3.90
2018-01-31T23:29:05.934Z,3.70
2018-01-31T23:31:33.621Z,3.70
2018-01-31T23:34:01.415Z,3.70
2018-01-31T23:36:28.910Z,3.70
2018-01-31T23:38:57.326Z,3.70
2018-01-31T23:41:24.818Z,3.60
2018-01-31T23:43:52.315Z,3.50
2018-01-31T23:46:19.935Z,3.50
2018-01-31T23:48:47.426Z,3.40
2018-01-31T23:51:14.941Z,3.50
2018-01-31T23:53:42.435Z,3.40
2018-01-31T23:56:10.698Z,3.30
2018-01-31T23:58:38.675Z,3.30
